sensor_id;sensor_type;location;lat;lon;timestamp;pressure;altitude;pressure_sealevel;temperature;humidity
8047;BME280;74083;42.516;23.358;2024-03-02T00:01:54;87862.03;;;7.99;68.77
8047;BME280;74083;42.516;23.358;2024-03-02T00:04:40;87857.03;;;7.99;68.06
8047;BME280;74083;42.516;23.358;2024-03-02T00:07:27;87857.84;;;7.99;68.54
8047;BME280;74083;42.516;23.358;2024-03-02T00:10:16;87854.53;;;7.99;68.67
8047;BME280;74083;42.516;23.358;2024-03-02T00:13:05;87847.81;;;7.99;68.87
8047;BME280;74083;42.516;23.358;2024-03-02T00:15:53;87830.38;;;7.98;68.55
8047;BME280;74083;42.516;23.358;2024-03-02T00:18:40;87834.69;;;7.96;68.23
8047;BME280;74083;42.516;23.358;2024-03-02T00:21:27;87835.63;;;7.95;68.35
8047;BME280;74083;42.516;23.358;2024-03-02T00:24:21;87828.19;;;7.93;68.17
8047;BME280;74083;42.516;23.358;2024-03-02T00:27:14;87829.00;;;7.94;68.58
8047;BME280;74083;42.516;23.358;2024-03-02T00:30:06;87832.41;;;7.93;68.76
8047;BME280;74083;42.516;23.358;2024-03-02T00:33:11;87832.41;;;7.93;68.88
8047;BME280;74083;42.516;23.358;2024-03-02T00:35:57;87835.03;;;7.91;68.57
8047;BME280;74083;42.516;23.358;2024-03-02T00:38:47;87820.78;;;7.92;68.36
8047;BME280;74083;42.516;23.358;2024-03-02T00:41:34;87828.31;;;7.92;68.18
8047;BME280;74083;42.516;23.358;2024-03-02T00:44:24;87825.81;;;7.92;68.69
8047;BME280;74083;42.516;23.358;2024-03-02T00:47:13;87823.16;;;7.93;68.24
8047;BME280;74083;42.516;23.358;2024-03-02T00:49:59;87820.78;;;7.92;68.13
8047;BME280;74083;42.516;23.358;2024-03-02T00:52:46;87822.38;;;7.93;68.35
8047;BME280;74083;42.516;23.358;2024-03-02T00:55:36;87826.69;;;7.90;68.24
8047;BME280;74083;42.516;23.358;2024-03-02T00:58:24;87819.97;;;7.91;68.24
8047;BME280;74083;42.516;23.358;2024-03-02T01:01:10;87821.69;;;7.90;68.96
8047;BME280;74083;42.516;23.358;2024-03-02T01:03:56;87820.78;;;7.92;68.57
8047;BME280;74083;42.516;23.358;2024-03-02T01:06:42;87819.19;;;7.90;68.72
8047;BME280;74083;42.516;23.358;2024-03-02T01:09:28;87819.97;;;7.91;68.72
8047;BME280;74083;42.516;23.358;2024-03-02T01:12:14;87813.34;;;7.90;68.73
8047;BME280;74083;42.516;23.358;2024-03-02T01:15:02;87814.16;;;7.90;68.69
8047;BME280;74083;42.516;23.358;2024-03-02T01:17:52;87809.16;;;7.90;68.75
8047;BME280;74083;42.516;23.358;2024-03-02T01:20:38;87802.56;;;7.89;69.09
8047;BME280;74083;42.516;23.358;2024-03-02T01:23:24;87802.78;;;7.86;68.78
8047;BME280;74083;42.516;23.358;2024-03-02T01:26:10;87795.94;;;7.88;68.24
8047;BME280;74083;42.516;23.358;2024-03-02T01:28:56;87796.72;;;7.89;68.96
8047;BME280;74083;42.516;23.358;2024-03-02T01:31:43;87793.53;;;7.87;68.53
8047;BME280;74083;42.516;23.358;2024-03-02T01:34:29;87787.72;;;7.86;68.68
8047;BME280;74083;42.516;23.358;2024-03-02T01:37:15;87798.53;;;7.87;68.09
8047;BME280;74083;42.516;23.358;2024-03-02T01:40:01;87793.66;;;7.85;68.14
8047;BME280;74083;42.516;23.358;2024-03-02T01:42:53;87792.97;;;7.83;68.62
8047;BME280;74083;42.516;23.358;2024-03-02T01:45:39;87786.34;;;7.82;68.15
8047;BME280;74083;42.516;23.358;2024-03-02T01:48:27;87788.06;;;7.82;68.07
8047;BME280;74083;42.516;23.358;2024-03-02T01:51:13;87785.69;;;7.80;67.95
8047;BME280;74083;42.516;23.358;2024-03-02T01:53:59;87785.53;;;7.82;68.34
8047;BME280;74083;42.516;23.358;2024-03-02T01:56:45;87784.66;;;7.83;68.49
8047;BME280;74083;42.516;23.358;2024-03-02T01:59:31;87781.44;;;7.81;68.40
8047;BME280;74083;42.516;23.358;2024-03-02T02:02:17;87789.75;;;7.81;68.95
8047;BME280;74083;42.516;23.358;2024-03-02T02:05:06;87792.25;;;7.81;68.58
8047;BME280;74083;42.516;23.358;2024-03-02T02:07:52;87789.88;;;7.80;68.58
8047;BME280;74083;42.516;23.358;2024-03-02T02:10:38;87780.75;;;7.79;68.57
8047;BME280;74083;42.516;23.358;2024-03-02T02:13:24;87780.88;;;7.77;68.91
8047;BME280;74083;42.516;23.358;2024-03-02T02:16:10;87781.78;;;7.76;68.80
8047;BME280;74083;42.516;23.358;2024-03-02T02:18:56;87785.19;;;7.75;68.59
8047;BME280;74083;42.516;23.358;2024-03-02T02:21:44;87778.59;;;7.74;68.86
8047;BME280;74083;42.516;23.358;2024-03-02T02:24:29;87778.59;;;7.74;68.96
8047;BME280;74083;42.516;23.358;2024-03-02T02:27:14;87784.50;;;7.73;69.09
8047;BME280;74083;42.516;23.358;2024-03-02T02:30:01;87779.50;;;7.73;68.33
8047;BME280;74083;42.516;23.358;2024-03-02T02:32:47;87780.41;;;7.72;68.49
8047;BME280;74083;42.516;23.358;2024-03-02T02:35:33;87782.13;;;7.72;69.09
8047;BME280;74083;42.516;23.358;2024-03-02T02:38:20;87773.81;;;7.71;68.95
8047;BME280;74083;42.516;23.358;2024-03-02T02:41:07;87777.22;;;7.70;69.05
8047;BME280;74083;42.516;23.358;2024-03-02T02:43:53;87779.50;;;7.73;69.06
8047;BME280;74083;42.516;23.358;2024-03-02T02:46:39;87778.59;;;7.74;68.85
8047;BME280;74083;42.516;23.358;2024-03-02T02:49:24;87783.63;;;7.74;68.84
8047;BME280;74083;42.516;23.358;2024-03-02T02:52:11;87780.31;;;7.74;68.95
8047;BME280;74083;42.516;23.358;2024-03-02T02:54:58;87777.91;;;7.72;68.93
8047;BME280;74083;42.516;23.358;2024-03-02T02:57:44;87771.97;;;7.73;69.14
8047;BME280;74083;42.516;23.358;2024-03-02T03:00:30;87772.66;;;7.75;69.26
8047;BME280;74083;42.516;23.358;2024-03-02T03:03:16;87778.69;;;7.73;69.21
8047;BME280;74083;42.516;23.358;2024-03-02T03:06:02;87777.78;;;7.74;69.10
8047;BME280;74083;42.516;23.358;2024-03-02T03:08:48;87772.88;;;7.72;69.06
8047;BME280;74083;42.516;23.358;2024-03-02T03:11:36;87768.81;;;7.71;69.01
8047;BME280;74083;42.516;23.358;2024-03-02T03:14:22;87772.09;;;7.72;68.95
8047;BME280;74083;42.516;23.358;2024-03-02T03:17:08;87773.81;;;7.71;68.56
8047;BME280;74083;42.516;23.358;2024-03-02T03:19:53;87763.19;;;7.68;68.86
8047;BME280;74083;42.516;23.358;2024-03-02T03:22:40;87762.31;;;7.69;69.12
8047;BME280;74083;42.516;23.358;2024-03-02T03:25:26;87766.38;;;7.70;69.26
8047;BME280;74083;42.516;23.358;2024-03-02T03:28:14;87763.06;;;7.69;69.06
8047;BME280;74083;42.516;23.358;2024-03-02T03:30:59;87768.09;;;7.69;69.44
8047;BME280;74083;42.516;23.358;2024-03-02T03:33:46;87768.91;;;7.70;68.94
8047;BME280;74083;42.516;23.358;2024-03-02T03:36:32;87767.19;;;7.70;69.01
8047;BME280;74083;42.516;23.358;2024-03-02T03:39:18;87772.22;;;7.70;69.28
8047;BME280;74083;42.516;23.358;2024-03-02T03:42:04;87765.72;;;7.68;69.13
8047;BME280;74083;42.516;23.358;2024-03-02T03:44:51;87762.31;;;7.69;69.00
8047;BME280;74083;42.516;23.358;2024-03-02T03:47:37;87765.59;;;7.69;69.15
8047;BME280;74083;42.516;23.358;2024-03-02T03:50:23;87759.78;;;7.69;69.28
8047;BME280;74083;42.516;23.358;2024-03-02T03:53:09;87763.19;;;7.68;69.44
8047;BME280;74083;42.516;23.358;2024-03-02T03:55:55;87763.06;;;7.69;69.15
8047;BME280;74083;42.516;23.358;2024-03-02T03:58:41;87767.31;;;7.69;69.07
8047;BME280;74083;42.516;23.358;2024-03-02T04:01:28;87762.97;;;7.71;69.12
8047;BME280;74083;42.516;23.358;2024-03-02T04:04:14;87757.97;;;7.71;69.65
8047;BME280;74083;42.516;23.358;2024-03-02T04:07:01;87763.06;;;7.69;69.27
8047;BME280;74083;42.516;23.358;2024-03-02T04:09:47;87758.06;;;7.69;69.59
8047;BME280;74083;42.516;23.358;2024-03-02T04:12:33;87764.69;;;7.70;69.70
8047;BME280;74083;42.516;23.358;2024-03-02T04:15:19;87770.59;;;7.69;69.44
8047;BME280;74083;42.516;23.358;2024-03-02T04:18:07;87763.06;;;7.69;69.46
8047;BME280;74083;42.516;23.358;2024-03-02T04:20:52;87760.56;;;7.69;69.83
8047;BME280;74083;42.516;23.358;2024-03-02T04:23:38;87766.38;;;7.70;69.67
8047;BME280;74083;42.516;23.358;2024-03-02T04:26:24;87758.06;;;7.69;69.55
8047;BME280;74083;42.516;23.358;2024-03-02T04:29:10;87768.81;;;7.71;69.53
8047;BME280;74083;42.516;23.358;2024-03-02T04:31:56;87768.81;;;7.71;69.43
8047;BME280;74083;42.516;23.358;2024-03-02T04:34:43;87762.19;;;7.70;69.63
8047;BME280;74083;42.516;23.358;2024-03-02T04:37:30;87767.09;;;7.72;69.52
8047;BME280;74083;42.516;23.358;2024-03-02T04:40:16;87762.31;;;7.69;69.52
8047;BME280;74083;42.516;23.358;2024-03-02T04:43:02;87763.06;;;7.69;69.24
8047;BME280;74083;42.516;23.358;2024-03-02T04:45:48;87769.91;;;7.67;69.47
8047;BME280;74083;42.516;23.358;2024-03-02T04:48:34;87772.22;;;7.70;69.44
8047;BME280;74083;42.516;23.358;2024-03-02T04:51:22;87768.91;;;7.70;69.45
8047;BME280;74083;42.516;23.358;2024-03-02T04:54:08;87770.59;;;7.69;69.60
8047;BME280;74083;42.516;23.358;2024-03-02T04:56:54;87775.63;;;7.69;69.83
8047;BME280;74083;42.516;23.358;2024-03-02T04:59:40;87768.22;;;7.68;69.50
8047;BME280;74083;42.516;23.358;2024-03-02T05:02:26;87766.50;;;7.68;69.76
8047;BME280;74083;42.516;23.358;2024-03-02T05:05:12;87769.03;;;7.68;69.61
8047;BME280;74083;42.516;23.358;2024-03-02T05:08:00;87763.19;;;7.68;69.75
8047;BME280;74083;42.516;23.358;2024-03-02T05:10:47;87771.53;;;7.68;69.63
8047;BME280;74083;42.516;23.358;2024-03-02T05:13:33;87767.41;;;7.67;69.98
8047;BME280;74083;42.516;23.358;2024-03-02T05:16:17;87770.81;;;7.66;69.92
8047;BME280;74083;42.516;23.358;2024-03-02T05:19:03;87781.66;;;7.67;69.72
8047;BME280;74083;42.516;23.358;2024-03-02T05:21:51;87781.66;;;7.67;69.69
8047;BME280;74083;42.516;23.358;2024-03-02T05:24:38;87789.16;;;7.67;69.88
8047;BME280;74083;42.516;23.358;2024-03-02T05:27:25;87782.44;;;7.67;69.78
8047;BME280;74083;42.516;23.358;2024-03-02T05:30:11;87789.16;;;7.67;69.55
8047;BME280;74083;42.516;23.358;2024-03-02T05:32:57;87791.69;;;7.67;69.62
8047;BME280;74083;42.516;23.358;2024-03-02T05:35:44;87796.69;;;7.67;69.98
8047;BME280;74083;42.516;23.358;2024-03-02T05:38:29;87799.31;;;7.65;69.51
8047;BME280;74083;42.516;23.358;2024-03-02T05:41:16;87804.34;;;7.65;69.71
8047;BME280;74083;42.516;23.358;2024-03-02T05:44:02;87803.63;;;7.63;70.10
8047;BME280;74083;42.516;23.358;2024-03-02T05:46:48;87800.22;;;7.64;69.93
8047;BME280;74083;42.516;23.358;2024-03-02T05:49:34;87808.56;;;7.65;69.68
8047;BME280;74083;42.516;23.358;2024-03-02T05:52:20;87811.06;;;7.65;69.41
8047;BME280;74083;42.516;23.358;2024-03-02T05:55:06;87810.25;;;7.64;69.77
8047;BME280;74083;42.516;23.358;2024-03-02T05:57:54;87810.38;;;7.63;69.51
8047;BME280;74083;42.516;23.358;2024-03-02T06:00:55;87816.16;;;7.63;69.50
8047;BME280;74083;42.516;23.358;2024-03-02T06:03:41;87815.38;;;7.63;69.80
8047;BME280;74083;42.516;23.358;2024-03-02T06:06:27;87813.66;;;7.63;70.21
8047;BME280;74083;42.516;23.358;2024-03-02T06:09:13;87817.91;;;7.63;69.59
8047;BME280;74083;42.516;23.358;2024-03-02T06:11:58;87814.59;;;7.62;70.07
8047;BME280;74083;42.516;23.358;2024-03-02T06:14:46;87818.00;;;7.61;69.69
8047;BME280;74083;42.516;23.358;2024-03-02T06:17:32;87817.09;;;7.62;69.89
8047;BME280;74083;42.516;23.358;2024-03-02T06:20:18;87818.78;;;7.62;69.98
8047;BME280;74083;42.516;23.358;2024-03-02T06:23:04;87824.63;;;7.62;70.09
8047;BME280;74083;42.516;23.358;2024-03-02T06:25:50;87820.50;;;7.61;70.09
8047;BME280;74083;42.516;23.358;2024-03-02T06:28:35;87813.88;;;7.60;70.28
8047;BME280;74083;42.516;23.358;2024-03-02T06:31:23;87816.38;;;7.60;69.90
8047;BME280;74083;42.516;23.358;2024-03-02T06:34:09;87811.38;;;7.60;70.07
8047;BME280;74083;42.516;23.358;2024-03-02T06:36:55;87826.41;;;7.60;70.08
8047;BME280;74083;42.516;23.358;2024-03-02T06:39:41;87819.03;;;7.59;70.12
8047;BME280;74083;42.516;23.358;2024-03-02T06:42:27;87821.66;;;7.57;70.33
8047;BME280;74083;42.516;23.358;2024-03-02T06:45:17;87828.03;;;7.61;70.20
8047;BME280;74083;42.516;23.358;2024-03-02T06:48:04;87827.34;;;7.59;70.20
8047;BME280;74083;42.516;23.358;2024-03-02T06:50:50;87828.91;;;7.60;70.30
8047;BME280;74083;42.516;23.358;2024-03-02T06:53:36;87830.53;;;7.61;70.08
8047;BME280;74083;42.516;23.358;2024-03-02T06:56:22;87832.34;;;7.59;70.39
8047;BME280;74083;42.516;23.358;2024-03-02T06:59:08;87836.44;;;7.60;70.12
8047;BME280;74083;42.516;23.358;2024-03-02T07:01:53;87834.88;;;7.59;70.38
8047;BME280;74083;42.516;23.358;2024-03-02T07:04:41;87839.19;;;7.57;70.58
8047;BME280;74083;42.516;23.358;2024-03-02T07:07:26;87835.75;;;7.58;70.46
8047;BME280;74083;42.516;23.358;2024-03-02T07:10:12;87843.28;;;7.58;70.13
8047;BME280;74083;42.516;23.358;2024-03-02T07:12:58;87835.75;;;7.58;70.36
8047;BME280;74083;42.516;23.358;2024-03-02T07:15:44;87848.28;;;7.58;70.27
8047;BME280;74083;42.516;23.358;2024-03-02T07:18:50;87847.41;;;7.59;70.40
8047;BME280;74083;42.516;23.358;2024-03-02T07:21:37;87844.97;;;7.58;70.41
8047;BME280;74083;42.516;23.358;2024-03-02T07:24:23;87843.28;;;7.58;70.31
8047;BME280;74083;42.516;23.358;2024-03-02T07:27:09;87846.72;;;7.57;70.35
8047;BME280;74083;42.516;23.358;2024-03-02T07:29:56;87848.41;;;7.57;70.44
8047;BME280;74083;42.516;23.358;2024-03-02T07:32:42;87851.72;;;7.57;70.43
8047;BME280;74083;42.516;23.358;2024-03-02T07:35:29;87855.00;;;7.58;70.38
8047;BME280;74083;42.516;23.358;2024-03-02T07:38:17;87850.94;;;7.57;70.51
8047;BME280;74083;42.516;23.358;2024-03-02T07:41:03;87850.13;;;7.56;70.50
8047;BME280;74083;42.516;23.358;2024-03-02T07:43:49;87851.72;;;7.57;70.18
8047;BME280;74083;42.516;23.358;2024-03-02T07:46:34;87859.25;;;7.57;70.39
8047;BME280;74083;42.516;23.358;2024-03-02T07:49:21;87861.75;;;7.57;70.26
8047;BME280;74083;42.516;23.358;2024-03-02T07:52:06;87865.16;;;7.56;70.77
8047;BME280;74083;42.516;23.358;2024-03-02T07:54:54;87861.75;;;7.57;70.39
8047;BME280;74083;42.516;23.358;2024-03-02T07:57:40;87865.16;;;7.56;70.78
8047;BME280;74083;42.516;23.358;2024-03-02T08:00:26;87867.75;;;7.55;70.32
8047;BME280;74083;42.516;23.358;2024-03-02T08:03:13;87864.34;;;7.56;70.49
8047;BME280;74083;42.516;23.358;2024-03-02T08:05:59;87870.16;;;7.56;70.41
8047;BME280;74083;42.516;23.358;2024-03-02T08:08:45;87863.56;;;7.55;70.46
8047;BME280;74083;42.516;23.358;2024-03-02T08:11:32;87871.19;;;7.54;70.54
8047;BME280;74083;42.516;23.358;2024-03-02T08:14:19;87870.38;;;7.53;70.49
8047;BME280;74083;42.516;23.358;2024-03-02T08:17:04;87869.50;;;7.54;70.13
8047;BME280;74083;42.516;23.358;2024-03-02T08:19:54;87873.69;;;7.54;70.40
8047;BME280;74083;42.516;23.358;2024-03-02T08:22:40;87875.41;;;7.53;70.93
8047;BME280;74083;42.516;23.358;2024-03-02T08:25:26;87875.50;;;7.52;70.82
8047;BME280;74083;42.516;23.358;2024-03-02T08:28:13;87875.41;;;7.53;70.64
8047;BME280;74083;42.516;23.358;2024-03-02T08:30:59;87877.00;;;7.54;70.52
8047;BME280;74083;42.516;23.358;2024-03-02T08:33:44;87876.22;;;7.54;70.49
8047;BME280;74083;42.516;23.358;2024-03-02T08:36:30;87873.69;;;7.54;70.45
8047;BME280;74083;42.516;23.358;2024-03-02T08:39:17;87874.50;;;7.54;70.75
8047;BME280;74083;42.516;23.358;2024-03-02T08:42:03;87872.00;;;7.54;70.47
8047;BME280;74083;42.516;23.358;2024-03-02T08:44:51;87877.91;;;7.53;70.53
8047;BME280;74083;42.516;23.358;2024-03-02T08:47:38;87872.00;;;7.54;70.53
8047;BME280;74083;42.516;23.358;2024-03-02T08:50:24;87877.00;;;7.54;70.61
8047;BME280;74083;42.516;23.358;2024-03-02T08:53:09;87872.91;;;7.53;70.63
8047;BME280;74083;42.516;23.358;2024-03-02T08:55:55;87877.78;;;7.55;70.24
8047;BME280;74083;42.516;23.358;2024-03-02T08:58:41;87871.19;;;7.54;70.42
8047;BME280;74083;42.516;23.358;2024-03-02T09:01:29;87876.22;;;7.54;70.78
8047;BME280;74083;42.516;23.358;2024-03-02T09:04:16;87875.41;;;7.53;70.81
8047;BME280;74083;42.516;23.358;2024-03-02T09:07:02;87875.41;;;7.53;70.65
8047;BME280;74083;42.516;23.358;2024-03-02T09:09:48;87873.69;;;7.54;70.75
8047;BME280;74083;42.516;23.358;2024-03-02T09:12:34;87877.91;;;7.53;70.46
8047;BME280;74083;42.516;23.358;2024-03-02T09:15:20;87884.53;;;7.54;70.78
8047;BME280;74083;42.516;23.358;2024-03-02T09:18:07;87886.22;;;7.54;70.70
8047;BME280;74083;42.516;23.358;2024-03-02T09:20:53;87887.03;;;7.54;70.75
8047;BME280;74083;42.516;23.358;2024-03-02T09:23:39;87885.31;;;7.55;70.48
8047;BME280;74083;42.516;23.358;2024-03-02T09:26:25;87883.59;;;7.55;70.83
8047;BME280;74083;42.516;23.358;2024-03-02T09:29:11;87881.22;;;7.54;71.16
8047;BME280;74083;42.516;23.358;2024-03-02T09:31:57;87881.22;;;7.54;70.93
8047;BME280;74083;42.516;23.358;2024-03-02T09:34:45;87891.25;;;7.54;71.05
8047;BME280;74083;42.516;23.358;2024-03-02T09:37:32;87885.44;;;7.53;71.08
8047;BME280;74083;42.516;23.358;2024-03-02T09:40:21;87886.31;;;7.52;71.19
8047;BME280;74083;42.516;23.358;2024-03-02T09:43:08;87888.84;;;7.52;71.30
8047;BME280;74083;42.516;23.358;2024-03-02T09:45:54;87885.44;;;7.53;70.97
8047;BME280;74083;42.516;23.358;2024-03-02T09:48:40;87888.84;;;7.52;71.26
8047;BME280;74083;42.516;23.358;2024-03-02T09:51:28;87884.75;;;7.51;71.18
8047;BME280;74083;42.516;23.358;2024-03-02T09:54:15;87893.84;;;7.52;71.45
8047;BME280;74083;42.516;23.358;2024-03-02T09:57:02;87887.25;;;7.51;71.31
8047;BME280;74083;42.516;23.358;2024-03-02T09:59:49;87889.75;;;7.51;71.65
8047;BME280;74083;42.516;23.358;2024-03-02T10:02:35;87886.44;;;7.51;71.69
8047;BME280;74083;42.516;23.358;2024-03-02T10:05:24;87888.16;;;7.50;71.84
8047;BME280;74083;42.516;23.358;2024-03-02T10:08:12;87885.66;;;7.50;71.50
8047;BME280;74083;42.516;23.358;2024-03-02T10:10:58;87888.84;;;7.52;71.79
8047;BME280;74083;42.516;23.358;2024-03-02T10:13:44;87885.66;;;7.50;71.95
8047;BME280;74083;42.516;23.358;2024-03-02T10:16:30;87880.63;;;7.50;71.60
8047;BME280;74083;42.516;23.358;2024-03-02T10:19:19;87875.16;;;7.45;71.54
8047;BME280;74083;42.516;23.358;2024-03-02T10:22:07;87873.22;;;7.49;71.92
8047;BME280;74083;42.516;23.358;2024-03-02T10:24:55;87874.22;;;7.46;72.16
8047;BME280;74083;42.516;23.358;2024-03-02T10:27:40;87872.44;;;7.48;72.31
8047;BME280;74083;42.516;23.358;2024-03-02T10:30:27;87878.22;;;7.49;72.53
8047;BME280;74083;42.516;23.358;2024-03-02T10:33:13;87880.63;;;7.50;72.12
8047;BME280;74083;42.516;23.358;2024-03-02T10:35:59;87879.81;;;7.50;72.52
8047;BME280;74083;42.516;23.358;2024-03-02T10:38:45;87880.72;;;7.49;72.70
8047;BME280;74083;42.516;23.358;2024-03-02T10:41:34;87880.63;;;7.50;72.65
8047;BME280;74083;42.516;23.358;2024-03-02T10:44:22;87878.13;;;7.50;72.67
8047;BME280;74083;42.516;23.358;2024-03-02T10:47:09;87873.34;;;7.47;72.60
8047;BME280;74083;42.516;23.358;2024-03-02T10:49:59;87870.59;;;7.50;72.28
8047;BME280;74083;42.516;23.358;2024-03-02T10:52:48;87873.91;;;7.51;72.59
8047;BME280;74083;42.516;23.358;2024-03-02T10:55:34;87867.28;;;7.50;72.39
8047;BME280;74083;42.516;23.358;2024-03-02T10:58:22;87871.41;;;7.51;72.54
8047;BME280;74083;42.516;23.358;2024-03-02T11:01:11;87868.09;;;7.50;72.76
8047;BME280;74083;42.516;23.358;2024-03-02T11:03:59;87870.59;;;7.50;72.33
8047;BME280;74083;42.516;23.358;2024-03-02T11:06:48;87869.81;;;7.50;72.58
8047;BME280;74083;42.516;23.358;2024-03-02T11:09:40;87870.59;;;7.50;72.29
8047;BME280;74083;42.516;23.358;2024-03-02T11:12:29;87865.59;;;7.50;72.32
8047;BME280;74083;42.516;23.358;2024-03-02T11:15:18;87868.19;;;7.49;72.62
8047;BME280;74083;42.516;23.358;2024-03-02T11:18:05;87873.13;;;7.50;72.46
8047;BME280;74083;42.516;23.358;2024-03-02T11:20:53;87870.59;;;7.50;72.16
8047;BME280;74083;42.516;23.358;2024-03-02T11:23:39;87872.22;;;7.51;72.23
8047;BME280;74083;42.516;23.358;2024-03-02T11:26:25;87864.00;;;7.49;72.37
8047;BME280;74083;42.516;23.358;2024-03-02T11:29:44;87878.00;;;7.52;72.45
8047;BME280;74083;42.516;23.358;2024-03-02T11:32:31;87869.72;;;7.51;72.37
8047;BME280;74083;42.516;23.358;2024-03-02T11:35:17;87862.41;;;7.48;72.48
8047;BME280;74083;42.516;23.358;2024-03-02T11:38:03;87862.28;;;7.50;72.12
8047;BME280;74083;42.516;23.358;2024-03-02T11:40:49;87861.47;;;7.49;72.30
8047;BME280;74083;42.516;23.358;2024-03-02T11:43:37;87868.09;;;7.50;72.59
8047;BME280;74083;42.516;23.358;2024-03-02T11:46:25;87868.91;;;7.51;72.32
8047;BME280;74083;42.516;23.358;2024-03-02T11:49:15;87868.19;;;7.49;72.59
8047;BME280;74083;42.516;23.358;2024-03-02T11:52:07;87872.44;;;7.48;72.40
8047;BME280;74083;42.516;23.358;2024-03-02T11:54:53;87870.69;;;7.49;72.76
8047;BME280;74083;42.516;23.358;2024-03-02T11:57:39;87866.63;;;7.48;72.52
8047;BME280;74083;42.516;23.358;2024-03-02T12:00:24;87871.50;;;7.49;72.52
8047;BME280;74083;42.516;23.358;2024-03-02T12:03:14;87868.19;;;7.49;72.52
8047;BME280;74083;42.516;23.358;2024-03-02T12:06:02;87869.94;;;7.48;72.59
8047;BME280;74083;42.516;23.358;2024-03-02T12:08:52;87868.19;;;7.49;72.87
8047;BME280;74083;42.516;23.358;2024-03-02T12:11:39;87874.00;;;7.49;72.78
8047;BME280;74083;42.516;23.358;2024-03-02T12:14:24;87874.00;;;7.49;72.94
8047;BME280;74083;42.516;23.358;2024-03-02T12:17:13;87877.44;;;7.48;72.95
8047;BME280;74083;42.516;23.358;2024-03-02T12:19:58;87870.81;;;7.47;72.95
8047;BME280;74083;42.516;23.358;2024-03-02T12:22:50;87873.34;;;7.47;73.28
8047;BME280;74083;42.516;23.358;2024-03-02T12:25:36;87874.94;;;7.48;72.96
8047;BME280;74083;42.516;23.358;2024-03-02T12:28:22;87884.03;;;7.49;72.83
8047;BME280;74083;42.516;23.358;2024-03-02T12:31:08;87873.34;;;7.47;72.87
8047;BME280;74083;42.516;23.358;2024-03-02T12:33:54;87875.03;;;7.47;72.75
8047;BME280;74083;42.516;23.358;2024-03-02T12:36:40;87871.72;;;7.46;73.31
8047;BME280;74083;42.516;23.358;2024-03-02T12:39:28;87874.22;;;7.46;73.07
8047;BME280;74083;42.516;23.358;2024-03-02T12:42:15;87878.44;;;7.46;73.28
8047;BME280;74083;42.516;23.358;2024-03-02T12:45:01;87874.22;;;7.46;73.06
8047;BME280;74083;42.516;23.358;2024-03-02T12:47:46;87880.03;;;7.47;73.14
8047;BME280;74083;42.516;23.358;2024-03-02T12:50:33;87875.03;;;7.47;73.01
8047;BME280;74083;42.516;23.358;2024-03-02T12:53:19;87878.44;;;7.46;73.21
8047;BME280;74083;42.516;23.358;2024-03-02T12:56:09;87882.69;;;7.45;73.13
8047;BME280;74083;42.516;23.358;2024-03-02T12:58:55;87884.25;;;7.46;73.08
8047;BME280;74083;42.516;23.358;2024-03-02T13:01:50;87881.75;;;7.46;72.92
8047;BME280;74083;42.516;23.358;2024-03-02T13:04:35;87886.75;;;7.46;72.93
8047;BME280;74083;42.516;23.358;2024-03-02T13:07:21;87884.25;;;7.46;72.91
8047;BME280;74083;42.516;23.358;2024-03-02T13:10:07;87885.94;;;7.46;72.84
8047;BME280;74083;42.516;23.358;2024-03-02T13:12:56;87880.16;;;7.45;72.82
8047;BME280;74083;42.516;23.358;2024-03-02T13:15:41;87882.69;;;7.45;72.95
8047;BME280;74083;42.516;23.358;2024-03-02T13:18:29;87881.88;;;7.45;73.04
8047;BME280;74083;42.516;23.358;2024-03-02T13:21:15;87888.47;;;7.46;73.12
8047;BME280;74083;42.516;23.358;2024-03-02T13:24:01;87880.25;;;7.44;73.53
8047;BME280;74083;42.516;23.358;2024-03-02T13:26:47;87882.69;;;7.45;72.99
8047;BME280;74083;42.516;23.358;2024-03-02T13:29:34;87885.94;;;7.46;73.13
8047;BME280;74083;42.516;23.358;2024-03-02T13:32:20;87885.19;;;7.45;73.02
8047;BME280;74083;42.516;23.358;2024-03-02T13:35:08;87889.25;;;7.46;72.88
8047;BME280;74083;42.516;23.358;2024-03-02T13:37:55;87890.97;;;7.46;73.00
8047;BME280;74083;42.516;23.358;2024-03-02T13:40:41;87890.97;;;7.46;73.34
8047;BME280;74083;42.516;23.358;2024-03-02T13:43:26;87890.97;;;7.46;73.01
8047;BME280;74083;42.516;23.358;2024-03-02T13:46:17;87892.69;;;7.45;72.98
8047;BME280;74083;42.516;23.358;2024-03-02T13:49:03;87892.69;;;7.45;73.25
8047;BME280;74083;42.516;23.358;2024-03-02T13:51:49;87903.50;;;7.46;73.11
8047;BME280;74083;42.516;23.358;2024-03-02T13:54:37;87907.72;;;7.45;73.30
8047;BME280;74083;42.516;23.358;2024-03-02T13:57:23;87898.81;;;7.41;73.18
8047;BME280;74083;42.516;23.358;2024-03-02T14:00:09;87912.75;;;7.45;73.07
8047;BME280;74083;42.516;23.358;2024-03-02T14:02:58;87912.75;;;7.45;73.34
8047;BME280;74083;42.516;23.358;2024-03-02T14:05:44;87917.75;;;7.45;73.37
8047;BME280;74083;42.516;23.358;2024-03-02T14:08:30;87919.47;;;7.45;73.26
8047;BME280;74083;42.516;23.358;2024-03-02T14:11:18;87921.16;;;7.44;73.20
8047;BME280;74083;42.516;23.358;2024-03-02T14:14:04;87912.97;;;7.42;73.31
8047;BME280;74083;42.516;23.358;2024-03-02T14:16:50;87921.16;;;7.44;73.44
8047;BME280;74083;42.516;23.358;2024-03-02T14:19:37;87920.34;;;7.44;73.54
8047;BME280;74083;42.516;23.358;2024-03-02T14:22:23;87923.78;;;7.43;73.22
8047;BME280;74083;42.516;23.358;2024-03-02T14:25:08;87919.56;;;7.43;73.28
8047;BME280;74083;42.516;23.358;2024-03-02T14:27:54;87925.38;;;7.44;73.50
8047;BME280;74083;42.516;23.358;2024-03-02T14:30:40;87935.41;;;7.44;73.19
8047;BME280;74083;42.516;23.358;2024-03-02T14:33:25;87933.81;;;7.43;73.69
8047;BME280;74083;42.516;23.358;2024-03-02T14:36:13;87940.41;;;7.44;73.29
8047;BME280;74083;42.516;23.358;2024-03-02T14:38:59;87935.41;;;7.44;73.24
8047;BME280;74083;42.516;23.358;2024-03-02T14:41:44;87933.69;;;7.44;73.37
8047;BME280;74083;42.516;23.358;2024-03-02T14:44:30;87937.22;;;7.42;73.40
8047;BME280;74083;42.516;23.358;2024-03-02T14:47:16;87929.56;;;7.43;73.41
8047;BME280;74083;42.516;23.358;2024-03-02T14:50:02;87933.00;;;7.42;73.42
8047;BME280;74083;42.516;23.358;2024-03-02T14:52:51;87933.81;;;7.43;73.44
8047;BME280;74083;42.516;23.358;2024-03-02T14:55:37;87931.31;;;7.43;73.40